sensor_id;sensor_type;location;lat;lon;timestamp;temperature;humidity
65536;DHT22;52145;49.342;9.116;2023-03-31T00:01:23;10.70;99.90
65536;DHT22;52145;49.342;9.116;2023-03-31T00:03:49;10.70;99.90
65536;DHT22;52145;49.342;9.116;2023-03-31T00:06:14;10.70;99.90
65536;DHT22;52145;49.342;9.116;2023-03-31T00:08:43;10.60;99.90
65536;DHT22;52145;49.342;9.116;2023-03-31T00:11:09;10.60;99.90
65536;DHT22;52145;49.342;9.116;2023-03-31T00:13:36;10.50;99.90
65536;DHT22;52145;49.342;9.116;2023-03-31T00:16:07;10.60;99.90
65536;DHT22;52145;49.342;9.116;2023-03-31T00:18:34;10.60;99.90
65536;DHT22;52145;49.342;9.116;2023-03-31T00:21:12;10.50;99.90
65536;DHT22;52145;49.342;9.116;2023-03-31T00:23:50;10.50;99.90
65536;DHT22;52145;49.342;9.116;2023-03-31T00:26:15;10.50;99.90
65536;DHT22;52145;49.342;9.116;2023-03-31T00:28:41;10.50;99.90
65536;DHT22;52145;49.342;9.116;2023-03-31T00:31:07;10.50;99.90
65536;DHT22;52145;49.342;9.116;2023-03-31T00:33:32;10.50;99.90
65536;DHT22;52145;49.342;9.116;2023-03-31T00:35:58;10.40;99.90
65536;DHT22;52145;49.342;9.116;2023-03-31T00:38:27;10.40;99.90
65536;DHT22;52145;49.342;9.116;2023-03-31T00:40:54;10.50;99.90
65536;DHT22;52145;49.342;9.116;2023-03-31T00:43:35;10.60;99.90
65536;DHT22;52145;49.342;9.116;2023-03-31T00:46:20;10.60;99.90
65536;DHT22;52145;49.342;9.116;2023-03-31T00:48:50;10.60;99.90
65536;DHT22;52145;49.342;9.116;2023-03-31T00:51:17;10.60;99.90
65536;DHT22;52145;49.342;9.116;2023-03-31T00:53:51;10.60;99.90
65536;DHT22;52145;49.342;9.116;2023-03-31T00:56:21;10.60;99.90
65536;DHT22;52145;49.342;9.116;2023-03-31T00:58:48;10.60;99.90
65536;DHT22;52145;49.342;9.116;2023-03-31T01:01:18;10.70;99.90
65536;DHT22;52145;49.342;9.116;2023-03-31T01:03:45;10.70;99.90
65536;DHT22;52145;49.342;9.116;2023-03-31T01:06:14;10.60;99.90
65536;DHT22;52145;49.342;9.116;2023-03-31T01:08:41;10.60;99.90
65536;DHT22;52145;49.342;9.116;2023-03-31T01:11:10;10.60;99.90
65536;DHT22;52145;49.342;9.116;2023-03-31T01:13:37;10.60;99.90
65536;DHT22;52145;49.342;9.116;2023-03-31T01:16:04;10.50;99.90
65536;DHT22;52145;49.342;9.116;2023-03-31T01:18:29;10.60;99.90
65536;DHT22;52145;49.342;9.116;2023-03-31T01:21:58;10.50;99.90
65536;DHT22;52145;49.342;9.116;2023-03-31T01:36:01;10.50;99.90
65536;DHT22;52145;49.342;9.116;2023-03-31T01:41:54;10.60;99.90
65536;DHT22;52145;49.342;9.116;2023-03-31T01:44:29;10.50;99.90
65536;DHT22;52145;49.342;9.116;2023-03-31T01:49:34;10.30;99.90
65536;DHT22;52145;49.342;9.116;2023-03-31T01:52:23;10.40;99.90
65536;DHT22;52145;49.342;9.116;2023-03-31T01:55:06;10.30;99.90
65536;DHT22;52145;49.342;9.116;2023-03-31T01:57:48;10.30;99.90
65536;DHT22;52145;49.342;9.116;2023-03-31T02:00:18;10.40;99.90
65536;DHT22;52145;49.342;9.116;2023-03-31T02:02:49;10.50;99.90
65536;DHT22;52145;49.342;9.116;2023-03-31T02:05:21;10.50;99.90
65536;DHT22;52145;49.342;9.116;2023-03-31T02:08:00;10.50;99.90
65536;DHT22;52145;49.342;9.116;2023-03-31T02:10:30;10.30;99.90
65536;DHT22;52145;49.342;9.116;2023-03-31T02:12:59;10.30;99.90
65536;DHT22;52145;49.342;9.116;2023-03-31T02:15:28;10.30;99.90
65536;DHT22;52145;49.342;9.116;2023-03-31T02:17:56;10.40;99.90
65536;DHT22;52145;49.342;9.116;2023-03-31T02:20:24;10.30;99.90
65536;DHT22;52145;49.342;9.116;2023-03-31T02:22:53;10.20;99.90
65536;DHT22;52145;49.342;9.116;2023-03-31T02:25:23;10.30;99.90
65536;DHT22;52145;49.342;9.116;2023-03-31T02:27:56;10.40;99.90
65536;DHT22;52145;49.342;9.116;2023-03-31T02:30:25;10.40;99.90
65536;DHT22;52145;49.342;9.116;2023-03-31T02:32:52;10.40;99.90
65536;DHT22;52145;49.342;9.116;2023-03-31T02:35:19;10.40;99.90
65536;DHT22;52145;49.342;9.116;2023-03-31T02:37:47;10.40;99.90
65536;DHT22;52145;49.342;9.116;2023-03-31T02:40:17;10.50;99.90
65536;DHT22;52145;49.342;9.116;2023-03-31T02:42:44;10.50;99.90
65536;DHT22;52145;49.342;9.116;2023-03-31T02:48:16;10.70;99.90
65536;DHT22;52145;49.342;9.116;2023-03-31T02:50:53;10.60;99.90
65536;DHT22;52145;49.342;9.116;2023-03-31T03:07:50;11.30;99.90
65536;DHT22;52145;49.342;9.116;2023-03-31T03:10:29;11.30;99.90
65536;DHT22;52145;49.342;9.116;2023-03-31T03:15:57;11.30;99.90
65536;DHT22;52145;49.342;9.116;2023-03-31T03:18:20;11.20;99.90
65536;DHT22;52145;49.342;9.116;2023-03-31T03:20:46;11.20;99.90
65536;DHT22;52145;49.342;9.116;2023-03-31T03:23:14;11.20;99.90
65536;DHT22;52145;49.342;9.116;2023-03-31T03:25:41;11.20;99.90
65536;DHT22;52145;49.342;9.116;2023-03-31T03:28:06;11.20;99.90
65536;DHT22;52145;49.342;9.116;2023-03-31T03:30:32;11.10;99.90
65536;DHT22;52145;49.342;9.116;2023-03-31T03:32:58;11.10;99.90
65536;DHT22;52145;49.342;9.116;2023-03-31T03:35:24;11.20;99.90
65536;DHT22;52145;49.342;9.116;2023-03-31T03:37:49;11.10;99.90
65536;DHT22;52145;49.342;9.116;2023-03-31T03:40:15;11.10;99.90
65536;DHT22;52145;49.342;9.116;2023-03-31T03:42:41;11.20;99.90
65536;DHT22;52145;49.342;9.116;2023-03-31T03:45:07;11.10;99.90
65536;DHT22;52145;49.342;9.116;2023-03-31T03:47:33;11.10;99.90
65536;DHT22;52145;49.342;9.116;2023-03-31T03:50:00;11.10;99.90
65536;DHT22;52145;49.342;9.116;2023-03-31T03:52:26;11.20;99.90
65536;DHT22;52145;49.342;9.116;2023-03-31T03:54:52;11.10;99.90
65536;DHT22;52145;49.342;9.116;2023-03-31T03:57:17;11.20;99.90
65536;DHT22;52145;49.342;9.116;2023-03-31T03:59:43;11.10;99.90
65536;DHT22;52145;49.342;9.116;2023-03-31T04:02:08;11.00;99.90
65536;DHT22;52145;49.342;9.116;2023-03-31T04:04:34;11.00;99.90
65536;DHT22;52145;49.342;9.116;2023-03-31T04:06:59;11.00;99.90
65536;DHT22;52145;49.342;9.116;2023-03-31T04:09:25;11.00;99.90
65536;DHT22;52145;49.342;9.116;2023-03-31T04:11:50;11.00;99.90
65536;DHT22;52145;49.342;9.116;2023-03-31T04:14:16;11.00;99.90
65536;DHT22;52145;49.342;9.116;2023-03-31T04:16:41;11.00;99.90
65536;DHT22;52145;49.342;9.116;2023-03-31T04:19:07;10.90;99.90
65536;DHT22;52145;49.342;9.116;2023-03-31T04:21:35;10.80;99.90
65536;DHT22;52145;49.342;9.116;2023-03-31T04:24:01;10.70;99.90
65536;DHT22;52145;49.342;9.116;2023-03-31T04:26:30;10.70;99.90
65536;DHT22;52145;49.342;9.116;2023-03-31T04:29:07;10.60;99.90
65536;DHT22;52145;49.342;9.116;2023-03-31T04:31:33;10.60;99.90
65536;DHT22;52145;49.342;9.116;2023-03-31T04:33:58;10.70;99.90
65536;DHT22;52145;49.342;9.116;2023-03-31T04:36:31;10.70;99.90
65536;DHT22;52145;49.342;9.116;2023-03-31T04:38:57;10.70;99.90
65536;DHT22;52145;49.342;9.116;2023-03-31T04:41:24;10.60;99.90
65536;DHT22;52145;49.342;9.116;2023-03-31T04:43:52;10.60;99.90
65536;DHT22;52145;49.342;9.116;2023-03-31T04:46:18;10.50;99.90
65536;DHT22;52145;49.342;9.116;2023-03-31T04:48:44;10.50;99.90
65536;DHT22;52145;49.342;9.116;2023-03-31T04:51:09;10.50;99.90
65536;DHT22;52145;49.342;9.116;2023-03-31T04:53:35;10.40;99.90
65536;DHT22;52145;49.342;9.116;2023-03-31T04:56:01;10.40;99.90
65536;DHT22;52145;49.342;9.116;2023-03-31T04:58:26;10.40;99.90
65536;DHT22;52145;49.342;9.116;2023-03-31T05:00:52;10.30;99.90
65536;DHT22;52145;49.342;9.116;2023-03-31T05:03:18;10.30;99.90
65536;DHT22;52145;49.342;9.116;2023-03-31T05:05:44;10.40;99.90
65536;DHT22;52145;49.342;9.116;2023-03-31T05:08:10;10.40;99.90
65536;DHT22;52145;49.342;9.116;2023-03-31T05:10:35;10.50;99.90
65536;DHT22;52145;49.342;9.116;2023-03-31T05:13:01;10.50;99.90
65536;DHT22;52145;49.342;9.116;2023-03-31T05:15:26;10.40;99.90
65536;DHT22;52145;49.342;9.116;2023-03-31T05:17:52;10.30;99.90
65536;DHT22;52145;49.342;9.116;2023-03-31T05:20:19;10.30;99.90
65536;DHT22;52145;49.342;9.116;2023-03-31T05:22:45;10.30;99.90
65536;DHT22;52145;49.342;9.116;2023-03-31T05:25:12;10.30;99.90
65536;DHT22;52145;49.342;9.116;2023-03-31T05:27:44;10.40;99.90
65536;DHT22;52145;49.342;9.116;2023-03-31T05:30:10;10.40;99.90
65536;DHT22;52145;49.342;9.116;2023-03-31T05:32:36;10.40;99.90
65536;DHT22;52145;49.342;9.116;2023-03-31T05:35:01;10.40;99.90
65536;DHT22;52145;49.342;9.116;2023-03-31T05:37:27;10.40;99.90
65536;DHT22;52145;49.342;9.116;2023-03-31T05:39:52;10.40;99.90
65536;DHT22;52145;49.342;9.116;2023-03-31T05:42:18;10.50;99.90
65536;DHT22;52145;49.342;9.116;2023-03-31T05:44:44;10.50;99.90
65536;DHT22;52145;49.342;9.116;2023-03-31T05:47:10;10.40;99.90
65536;DHT22;52145;49.342;9.116;2023-03-31T05:49:35;10.50;99.90
65536;DHT22;52145;49.342;9.116;2023-03-31T05:52:03;10.40;99.90
65536;DHT22;52145;49.342;9.116;2023-03-31T05:54:29;10.50;99.90
65536;DHT22;52145;49.342;9.116;2023-03-31T05:56:54;10.50;99.90
65536;DHT22;52145;49.342;9.116;2023-03-31T05:59:20;10.40;99.90
65536;DHT22;52145;49.342;9.116;2023-03-31T06:01:45;10.40;99.90
65536;DHT22;52145;49.342;9.116;2023-03-31T06:04:11;10.50;99.90
65536;DHT22;52145;49.342;9.116;2023-03-31T06:06:36;10.50;99.90
65536;DHT22;52145;49.342;9.116;2023-03-31T06:09:04;10.50;99.90
65536;DHT22;52145;49.342;9.116;2023-03-31T06:11:29;10.60;99.90
65536;DHT22;52145;49.342;9.116;2023-03-31T06:13:55;10.60;99.90
65536;DHT22;52145;49.342;9.116;2023-03-31T06:16:20;10.50;99.90
65536;DHT22;52145;49.342;9.116;2023-03-31T06:18:46;10.50;99.90
65536;DHT22;52145;49.342;9.116;2023-03-31T06:21:14;10.50;99.90
65536;DHT22;52145;49.342;9.116;2023-03-31T06:23:41;10.50;99.90
65536;DHT22;52145;49.342;9.116;2023-03-31T06:26:12;10.50;99.90
65536;DHT22;52145;49.342;9.116;2023-03-31T06:28:38;10.50;99.90
65536;DHT22;52145;49.342;9.116;2023-03-31T06:31:06;10.50;99.90
65536;DHT22;52145;49.342;9.116;2023-03-31T06:33:33;10.50;99.90
65536;DHT22;52145;49.342;9.116;2023-03-31T06:35:59;10.50;99.90
65536;DHT22;52145;49.342;9.116;2023-03-31T06:38:26;10.50;99.90
65536;DHT22;52145;49.342;9.116;2023-03-31T06:40:52;10.60;99.90
65536;DHT22;52145;49.342;9.116;2023-03-31T06:43:21;10.50;99.90
65536;DHT22;52145;49.342;9.116;2023-03-31T06:45:47;10.50;99.90
65536;DHT22;52145;49.342;9.116;2023-03-31T06:48:13;10.60;99.90
65536;DHT22;52145;49.342;9.116;2023-03-31T06:50:39;10.60;99.90
65536;DHT22;52145;49.342;9.116;2023-03-31T06:53:06;10.50;99.90
65536;DHT22;52145;49.342;9.116;2023-03-31T06:55:32;10.40;99.90
65536;DHT22;52145;49.342;9.116;2023-03-31T06:57:58;10.50;99.90
65536;DHT22;52145;49.342;9.116;2023-03-31T07:00:24;10.40;99.90
65536;DHT22;52145;49.342;9.116;2023-03-31T07:02:51;10.40;99.90
65536;DHT22;52145;49.342;9.116;2023-03-31T07:05:17;10.50;99.90
65536;DHT22;52145;49.342;9.116;2023-03-31T07:07:44;10.50;99.90
65536;DHT22;52145;49.342;9.116;2023-03-31T07:10:09;10.60;99.90
65536;DHT22;52145;49.342;9.116;2023-03-31T07:12:35;10.70;99.90
65536;DHT22;52145;49.342;9.116;2023-03-31T07:15:01;10.80;99.90
65536;DHT22;52145;49.342;9.116;2023-03-31T07:17:26;10.80;99.90
65536;DHT22;52145;49.342;9.116;2023-03-31T07:19:52;10.80;99.90
65536;DHT22;52145;49.342;9.116;2023-03-31T07:22:17;10.80;99.90
65536;DHT22;52145;49.342;9.116;2023-03-31T07:24:43;10.80;99.90
65536;DHT22;52145;49.342;9.116;2023-03-31T07:27:08;10.90;99.90
65536;DHT22;52145;49.342;9.116;2023-03-31T07:29:34;10.90;99.90
65536;DHT22;52145;49.342;9.116;2023-03-31T07:32:00;10.90;99.90
65536;DHT22;52145;49.342;9.116;2023-03-31T07:34:25;11.00;99.90
65536;DHT22;52145;49.342;9.116;2023-03-31T07:36:54;11.20;99.90
65536;DHT22;52145;49.342;9.116;2023-03-31T07:39:20;11.40;99.90
65536;DHT22;52145;49.342;9.116;2023-03-31T07:41:46;11.40;99.90
65536;DHT22;52145;49.342;9.116;2023-03-31T07:44:11;11.60;99.90
65536;DHT22;52145;49.342;9.116;2023-03-31T07:46:38;11.70;99.90
65536;DHT22;52145;49.342;9.116;2023-03-31T07:49:04;11.80;99.90
65536;DHT22;52145;49.342;9.116;2023-03-31T07:51:29;11.80;99.90
65536;DHT22;52145;49.342;9.116;2023-03-31T07:53:55;11.80;99.90
65536;DHT22;52145;49.342;9.116;2023-03-31T07:56:23;11.80;99.90
65536;DHT22;52145;49.342;9.116;2023-03-31T07:58:49;11.80;99.90
65536;DHT22;52145;49.342;9.116;2023-03-31T08:01:19;11.80;99.90
65536;DHT22;52145;49.342;9.116;2023-03-31T08:03:47;11.80;99.90
65536;DHT22;52145;49.342;9.116;2023-03-31T08:06:20;11.80;99.90
65536;DHT22;52145;49.342;9.116;2023-03-31T08:08:48;11.90;99.90
65536;DHT22;52145;49.342;9.116;2023-03-31T08:11:14;12.00;99.90
65536;DHT22;52145;49.342;9.116;2023-03-31T08:13:39;12.10;99.90
65536;DHT22;52145;49.342;9.116;2023-03-31T08:16:05;12.10;99.90
65536;DHT22;52145;49.342;9.116;2023-03-31T08:18:30;12.20;99.90
65536;DHT22;52145;49.342;9.116;2023-03-31T08:20:56;12.20;99.90
65536;DHT22;52145;49.342;9.116;2023-03-31T08:23:21;12.20;99.90
65536;DHT22;52145;49.342;9.116;2023-03-31T08:25:47;12.20;99.90
65536;DHT22;52145;49.342;9.116;2023-03-31T08:28:12;12.10;99.90
65536;DHT22;52145;49.342;9.116;2023-03-31T08:30:39;12.00;99.90
65536;DHT22;52145;49.342;9.116;2023-03-31T08:33:05;12.00;99.90
65536;DHT22;52145;49.342;9.116;2023-03-31T08:35:32;12.20;99.90
65536;DHT22;52145;49.342;9.116;2023-03-31T08:37:58;12.40;99.90
65536;DHT22;52145;49.342;9.116;2023-03-31T08:40:25;12.60;99.90
65536;DHT22;52145;49.342;9.116;2023-03-31T08:43:04;12.80;99.90
65536;DHT22;52145;49.342;9.116;2023-03-31T08:45:33;12.80;99.90
65536;DHT22;52145;49.342;9.116;2023-03-31T08:50:44;13.00;99.90
65536;DHT22;52145;49.342;9.116;2023-03-31T08:55:51;13.30;99.90
65536;DHT22;52145;49.342;9.116;2023-03-31T09:01:13;13.60;99.90
65536;DHT22;52145;49.342;9.116;2023-03-31T09:06:40;13.90;99.90
65536;DHT22;52145;49.342;9.116;2023-03-31T09:09:10;14.10;99.90
65536;DHT22;52145;49.342;9.116;2023-03-31T09:11:53;14.20;99.90
65536;DHT22;52145;49.342;9.116;2023-03-31T09:14:41;14.00;99.90
65536;DHT22;52145;49.342;9.116;2023-03-31T09:17:23;14.00;99.90
65536;DHT22;52145;49.342;9.116;2023-03-31T09:19:56;14.10;99.90
65536;DHT22;52145;49.342;9.116;2023-03-31T09:22:30;14.00;99.90
65536;DHT22;52145;49.342;9.116;2023-03-31T09:25:19;14.10;99.90
65536;DHT22;52145;49.342;9.116;2023-03-31T09:27:49;14.10;99.90
65536;DHT22;52145;49.342;9.116;2023-03-31T09:32:47;14.10;99.90
65536;DHT22;52145;49.342;9.116;2023-03-31T09:35:21;14.20;99.90
65536;DHT22;52145;49.342;9.116;2023-03-31T09:37:48;14.30;99.90
65536;DHT22;52145;49.342;9.116;2023-03-31T09:40:17;14.50;99.90
65536;DHT22;52145;49.342;9.116;2023-03-31T09:42:44;14.70;99.90
65536;DHT22;52145;49.342;9.116;2023-03-31T09:45:17;14.70;99.90
65536;DHT22;52145;49.342;9.116;2023-03-31T09:47:46;14.80;99.90
65536;DHT22;52145;49.342;9.116;2023-03-31T09:50:14;15.00;99.90
65536;DHT22;52145;49.342;9.116;2023-03-31T09:52:43;15.20;99.90
65536;DHT22;52145;49.342;9.116;2023-03-31T09:55:22;15.30;99.90
65536;DHT22;52145;49.342;9.116;2023-03-31T09:57:49;15.10;99.90
65536;DHT22;52145;49.342;9.116;2023-03-31T10:00:20;15.10;99.90
65536;DHT22;52145;49.342;9.116;2023-03-31T10:02:51;15.40;99.90
65536;DHT22;52145;49.342;9.116;2023-03-31T10:05:30;15.60;99.90
65536;DHT22;52145;49.342;9.116;2023-03-31T10:10:43;16.30;99.90
65536;DHT22;52145;49.342;9.116;2023-03-31T10:13:14;16.20;99.90
65536;DHT22;52145;49.342;9.116;2023-03-31T10:15:40;16.20;99.90
65536;DHT22;52145;49.342;9.116;2023-03-31T10:18:15;15.80;99.90
65536;DHT22;52145;49.342;9.116;2023-03-31T10:20:49;15.30;99.90
65536;DHT22;52145;49.342;9.116;2023-03-31T10:23:16;15.30;99.90
65536;DHT22;52145;49.342;9.116;2023-03-31T10:25:43;15.20;99.90
65536;DHT22;52145;49.342;9.116;2023-03-31T10:28:12;15.30;99.90
65536;DHT22;52145;49.342;9.116;2023-03-31T10:30:39;15.20;99.90
65536;DHT22;52145;49.342;9.116;2023-03-31T10:33:15;15.20;99.90
65536;DHT22;52145;49.342;9.116;2023-03-31T10:35:42;15.00;99.90
65536;DHT22;52145;49.342;9.116;2023-03-31T10:38:13;14.80;99.90
65536;DHT22;52145;49.342;9.116;2023-03-31T10:40:41;13.90;99.90
65536;DHT22;52145;49.342;9.116;2023-03-31T10:43:17;13.10;99.90
65536;DHT22;52145;49.342;9.116;2023-03-31T10:45:51;12.70;99.90
65536;DHT22;52145;49.342;9.116;2023-03-31T10:50:44;12.40;99.90
65536;DHT22;52145;49.342;9.116;2023-03-31T10:53:12;12.50;99.90
65536;DHT22;52145;49.342;9.116;2023-03-31T11:01:22;14.20;99.90
65536;DHT22;52145;49.342;9.116;2023-03-31T11:15:55;13.50;99.90
65536;DHT22;52145;49.342;9.116;2023-03-31T11:24:32;11.50;99.90
65536;DHT22;52145;49.342;9.116;2023-03-31T11:32:32;10.30;99.90
65536;DHT22;52145;49.342;9.116;2023-03-31T11:40:31;10.70;99.90
65536;DHT22;52145;49.342;9.116;2023-03-31T11:43:04;11.20;99.90
65536;DHT22;52145;49.342;9.116;2023-03-31T11:45:39;12.00;99.90
65536;DHT22;52145;49.342;9.116;2023-03-31T11:48:13;12.60;99.90
65536;DHT22;52145;49.342;9.116;2023-03-31T11:50:43;13.50;99.90
65536;DHT22;52145;49.342;9.116;2023-03-31T11:53:18;13.80;99.90
65536;DHT22;52145;49.342;9.116;2023-03-31T11:55:47;14.30;99.90
65536;DHT22;52145;49.342;9.116;2023-03-31T11:58:23;14.60;99.90
65536;DHT22;52145;49.342;9.116;2023-03-31T12:01:02;15.30;99.90
65536;DHT22;52145;49.342;9.116;2023-03-31T12:06:03;16.00;99.90
65536;DHT22;52145;49.342;9.116;2023-03-31T12:08:49;16.70;99.90
65536;DHT22;52145;49.342;9.116;2023-03-31T12:11:55;17.10;99.90
65536;DHT22;52145;49.342;9.116;2023-03-31T12:14:42;17.20;99.90
65536;DHT22;52145;49.342;9.116;2023-03-31T12:17:12;17.00;99.90
65536;DHT22;52145;49.342;9.116;2023-03-31T12:19:51;16.60;99.90
65536;DHT22;52145;49.342;9.116;2023-03-31T12:22:33;15.90;99.90
65536;DHT22;52145;49.342;9.116;2023-03-31T12:25:00;16.10;99.90
65536;DHT22;52145;49.342;9.116;2023-03-31T12:27:38;16.00;99.90
65536;DHT22;52145;49.342;9.116;2023-03-31T12:30:23;16.10;99.90
65536;DHT22;52145;49.342;9.116;2023-03-31T12:36:06;15.70;99.90
65536;DHT22;52145;49.342;9.116;2023-03-31T12:41:39;15.10;99.90
65536;DHT22;52145;49.342;9.116;2023-03-31T12:50:12;15.80;99.90
65536;DHT22;52145;49.342;9.116;2023-03-31T13:01:16;14.80;99.90
65536;DHT22;52145;49.342;9.116;2023-03-31T13:03:45;14.50;99.90
65536;DHT22;52145;49.342;9.116;2023-03-31T13:09:02;14.10;99.90
65536;DHT22;52145;49.342;9.116;2023-03-31T13:14:00;13.80;99.90
65536;DHT22;52145;49.342;9.116;2023-03-31T13:16:30;13.80;99.90
65536;DHT22;52145;49.342;9.116;2023-03-31T13:18:56;14.00;99.90
65536;DHT22;52145;49.342;9.116;2023-03-31T13:21:23;14.10;99.90
65536;DHT22;52145;49.342;9.116;2023-03-31T13:23:49;14.10;99.90
65536;DHT22;52145;49.342;9.116;2023-03-31T13:26:39;14.00;99.90
65536;DHT22;52145;49.342;9.116;2023-03-31T13:34:31;13.80;99.90
65536;DHT22;52145;49.342;9.116;2023-03-31T13:37:32;13.80;99.90
65536;DHT22;52145;49.342;9.116;2023-03-31T13:45:36;13.60;99.90
65536;DHT22;52145;49.342;9.116;2023-03-31T13:56:44;15.50;99.90
65536;DHT22;52145;49.342;9.116;2023-03-31T13:59:28;16.60;99.90
65536;DHT22;52145;49.342;9.116;2023-03-31T14:07:52;15.00;99.90
65536;DHT22;52145;49.342;9.116;2023-03-31T14:10:32;16.20;99.90
65536;DHT22;52145;49.342;9.116;2023-03-31T14:13:12;17.30;99.90
65536;DHT22;52145;49.342;9.116;2023-03-31T14:15:56;18.10;99.90
65536;DHT22;52145;49.342;9.116;2023-03-31T14:18:26;17.70;99.90
65536;DHT22;52145;49.342;9.116;2023-03-31T14:21:20;17.40;99.90
65536;DHT22;52145;49.342;9.116;2023-03-31T14:26:42;18.70;99.90
65536;DHT22;52145;49.342;9.116;2023-03-31T14:31:47;18.70;99.90
65536;DHT22;52145;49.342;9.116;2023-03-31T14:37:03;17.20;99.90
65536;DHT22;52145;49.342;9.116;2023-03-31T14:39:35;16.90;99.90
65536;DHT22;52145;49.342;9.116;2023-03-31T14:42:05;16.60;99.90
65536;DHT22;52145;49.342;9.116;2023-03-31T14:44:35;16.40;99.90
65536;DHT22;52145;49.342;9.116;2023-03-31T14:47:01;15.90;99.90
65536;DHT22;52145;49.342;9.116;2023-03-31T14:49:32;15.60;99.90
65536;DHT22;52145;49.342;9.116;2023-03-31T14:52:00;15.60;99.90
65536;DHT22;52145;49.342;9.116;2023-03-31T14:54:33;15.40;99.90
65536;DHT22;52145;49.342;9.116;2023-03-31T14:57:02;15.20;99.90
65536;DHT22;52145;49.342;9.116;2023-03-31T14:59:30;15.00;99.90
65536;DHT22;52145;49.342;9.116;2023-03-31T15:01:58;14.90;99.90
65536;DHT22;52145;49.342;9.116;2023-03-31T15:04:27;14.60;99.90
65536;DHT22;52145;49.342;9.116;2023-03-31T15:06:53;14.10;99.90
65536;DHT22;52145;49.342;9.116;2023-03-31T15:09:26;14.00;99.90
65536;DHT22;52145;49.342;9.116;2023-03-31T15:11:56;14.10;99.90
65536;DHT22;52145;49.342;9.116;2023-03-31T15:14:22;14.30;99.90
65536;DHT22;52145;49.342;9.116;2023-03-31T15:16:49;14.30;99.90
65536;DHT22;52145;49.342;9.116;2023-03-31T15:19:23;14.10;99.90
65536;DHT22;52145;49.342;9.116;2023-03-31T15:22:04;14.10;99.90
65536;DHT22;52145;49.342;9.116;2023-03-31T15:24:33;14.50;99.90
65536;DHT22;52145;49.342;9.116;2023-03-31T15:27:32;15.00;99.90
65536;DHT22;52145;49.342;9.116;2023-03-31T15:29:57;14.80;99.90
65536;DHT22;52145;49.342;9.116;2023-03-31T15:32:25;14.80;99.90
65536;DHT22;52145;49.342;9.116;2023-03-31T15:34:52;14.30;99.90
65536;DHT22;52145;49.342;9.116;2023-03-31T15:37:42;13.90;99.90
65536;DHT22;52145;49.342;9.116;2023-03-31T15:40:28;13.70;99.90
65536;DHT22;52145;49.342;9.116;2023-03-31T15:43:02;13.80;99.90
65536;DHT22;52145;49.342;9.116;2023-03-31T15:45:52;13.60;99.90
65536;DHT22;52145;49.342;9.116;2023-03-31T15:48:29;13.50;99.90
65536;DHT22;52145;49.342;9.116;2023-03-31T15:53:43;13.40;99.90
65536;DHT22;52145;49.342;9.116;2023-03-31T15:56:42;13.40;99.90
65536;DHT22;52145;49.342;9.116;2023-03-31T15:59:25;13.40;99.90
65536;DHT22;52145;49.342;9.116;2023-03-31T16:01:53;13.50;99.90
65536;DHT22;52145;49.342;9.116;2023-03-31T16:04:20;13.40;99.90
65536;DHT22;52145;49.342;9.116;2023-03-31T16:09:26;13.30;99.90
65536;DHT22;52145;49.342;9.116;2023-03-31T16:11:55;13.40;99.90
65536;DHT22;52145;49.342;9.116;2023-03-31T16:14:29;13.30;99.90
65536;DHT22;52145;49.342;9.116;2023-03-31T16:17:01;13.20;99.90
65536;DHT22;52145;49.342;9.116;2023-03-31T16:19:30;13.20;99.90
65536;DHT22;52145;49.342;9.116;2023-03-31T16:22:03;13.30;99.90
65536;DHT22;52145;49.342;9.116;2023-03-31T16:24:31;13.30;99.90
65536;DHT22;52145;49.342;9.116;2023-03-31T16:27:01;13.40;99.90
65536;DHT22;52145;49.342;9.116;2023-03-31T16:29:31;13.40;99.90
65536;DHT22;52145;49.342;9.116;2023-03-31T16:32:11;13.30;99.90
65536;DHT22;52145;49.342;9.116;2023-03-31T16:35:09;13.20;99.90
65536;DHT22;52145;49.342;9.116;2023-03-31T16:37:35;13.20;99.90
65536;DHT22;52145;49.342;9.116;2023-03-31T16:40:00;13.20;99.90
65536;DHT22;52145;49.342;9.116;2023-03-31T16:42:26;13.20;99.90
65536;DHT22;52145;49.342;9.116;2023-03-31T16:44:52;13.10;99.90
65536;DHT22;52145;49.342;9.116;2023-03-31T16:47:17;13.10;99.90
65536;DHT22;52145;49.342;9.116;2023-03-31T16:49:43;13.10;99.90
65536;DHT22;52145;49.342;9.116;2023-03-31T16:52:08;13.00;99.90
65536;DHT22;52145;49.342;9.116;2023-03-31T16:54:34;12.90;99.90
65536;DHT22;52145;49.342;9.116;2023-03-31T16:57:00;12.90;99.90
65536;DHT22;52145;49.342;9.116;2023-03-31T16:59:26;12.90;99.90
65536;DHT22;52145;49.342;9.116;2023-03-31T17:01:51;12.80;99.90
65536;DHT22;52145;49.342;9.116;2023-03-31T17:04:17;12.80;99.90
65536;DHT22;52145;49.342;9.116;2023-03-31T17:06:44;12.80;99.90
65536;DHT22;52145;49.342;9.116;2023-03-31T17:09:09;12.80;99.90
65536;DHT22;52145;49.342;9.116;2023-03-31T17:11:35;12.80;99.90
65536;DHT22;52145;49.342;9.116;2023-03-31T17:14:01;12.80;99.90
65536;DHT22;52145;49.342;9.116;2023-03-31T17:16:26;12.60;99.90
65536;DHT22;52145;49.342;9.116;2023-03-31T17:18:52;12.60;99.90
65536;DHT22;52145;49.342;9.116;2023-03-31T17:21:18;12.50;99.90
65536;DHT22;52145;49.342;9.116;2023-03-31T17:23:45;12.50;99.90
65536;DHT22;52145;49.342;9.116;2023-03-31T17:26:11;12.40;99.90
65536;DHT22;52145;49.342;9.116;2023-03-31T17:28:37;12.30;99.90
65536;DHT22;52145;49.342;9.116;2023-03-31T17:31:14;12.30;99.90
65536;DHT22;52145;49.342;9.116;2023-03-31T17:33:40;12.20;99.90
65536;DHT22;52145;49.342;9.116;2023-03-31T17:36:07;12.10;99.90
65536;DHT22;52145;49.342;9.116;2023-03-31T17:38:33;12.10;99.90
65536;DHT22;52145;49.342;9.116;2023-03-31T17:41:06;12.10;99.90
65536;DHT22;52145;49.342;9.116;2023-03-31T17:43:32;12.00;99.90
65536;DHT22;52145;49.342;9.116;2023-03-31T17:46:07;11.90;99.90
65536;DHT22;52145;49.342;9.116;2023-03-31T17:48:34;11.90;99.90
65536;DHT22;52145;49.342;9.116;2023-03-31T17:51:07;11.90;99.90
65536;DHT22;52145;49.342;9.116;2023-03-31T17:53:34;11.80;99.90
65536;DHT22;52145;49.342;9.116;2023-03-31T17:56:00;11.80;99.90
65536;DHT22;52145;49.342;9.116;2023-03-31T17:58:26;11.80;99.90
65536;DHT22;52145;49.342;9.116;2023-03-31T18:00:52;11.60;99.90
65536;DHT22;52145;49.342;9.116;2023-03-31T18:03:18;11.60;99.90
65536;DHT22;52145;49.342;9.116;2023-03-31T18:05:44;11.50;99.90
65536;DHT22;52145;49.342;9.116;2023-03-31T18:08:10;11.50;99.90
65536;DHT22;52145;49.342;9.116;2023-03-31T18:10:36;11.50;99.90
65536;DHT22;52145;49.342;9.116;2023-03-31T18:13:02;11.40;99.90
65536;DHT22;52145;49.342;9.116;2023-03-31T18:15:28;11.40;99.90
65536;DHT22;52145;49.342;9.116;2023-03-31T18:17:54;11.40;99.90
65536;DHT22;52145;49.342;9.116;2023-03-31T18:20:20;11.30;99.90
65536;DHT22;52145;49.342;9.116;2023-03-31T18:22:47;11.30;99.90
65536;DHT22;52145;49.342;9.116;2023-03-31T18:25:14;11.40;99.90